sensor_id;sensor_type;location;lat;lon;timestamp;pressure;altitude;pressure_sealevel;temperature
67509;BMP280;54354;44.724;11.284;2022-09-06T00:02:11;101910.00;;;27.92
67509;BMP280;54354;44.724;11.284;2022-09-06T00:04:36;101912.75;;;27.86
67509;BMP280;54354;44.724;11.284;2022-09-06T00:07:02;101907.56;;;27.83
67509;BMP280;54354;44.724;11.284;2022-09-06T00:09:27;101903.66;;;27.78
67509;BMP280;54354;44.724;11.284;2022-09-06T00:11:53;101892.75;;;27.78
67509;BMP280;54354;44.724;11.284;2022-09-06T00:14:18;101901.19;;;27.75
67509;BMP280;54354;44.724;11.284;2022-09-06T00:16:44;101900.94;;;27.73
67509;BMP280;54354;44.724;11.284;2022-09-06T00:19:09;101899.97;;;27.70
67509;BMP280;54354;44.724;11.284;2022-09-06T00:21:35;101898.47;;;27.69
67509;BMP280;54354;44.724;11.284;2022-09-06T00:24:01;101890.59;;;27.65
67509;BMP280;54354;44.724;11.284;2022-09-06T00:26:28;101896.53;;;27.64
67509;BMP280;54354;44.724;11.284;2022-09-06T00:28:53;101898.50;;;27.63
67509;BMP280;54354;44.724;11.284;2022-09-06T00:31:22;101896.06;;;27.60
67509;BMP280;54354;44.724;11.284;2022-09-06T00:33:48;101902.50;;;27.62
67509;BMP280;54354;44.724;11.284;2022-09-06T00:36:13;101903.22;;;27.63
67509;BMP280;54354;44.724;11.284;2022-09-06T00:38:40;101904.22;;;27.60
67509;BMP280;54354;44.724;11.284;2022-09-06T00:41:07;101904.75;;;27.58
67509;BMP280;54354;44.724;11.284;2022-09-06T00:43:33;101910.66;;;27.57
67509;BMP280;54354;44.724;11.284;2022-09-06T00:46:00;101907.50;;;27.53
67509;BMP280;54354;44.724;11.284;2022-09-06T00:48:26;101906.50;;;27.50
67509;BMP280;54354;44.724;11.284;2022-09-06T00:50:56;101907.25;;;27.45
67509;BMP280;54354;44.724;11.284;2022-09-06T00:53:23;101897.84;;;27.46
67509;BMP280;54354;44.724;11.284;2022-09-06T00:55:49;101908.50;;;27.44
67509;BMP280;54354;44.724;11.284;2022-09-06T00:58:14;101911.50;;;27.41
67509;BMP280;54354;44.724;11.284;2022-09-06T01:00:40;101911.25;;;27.38
67509;BMP280;54354;44.724;11.284;2022-09-06T01:03:06;101906.31;;;27.37
67509;BMP280;54354;44.724;11.284;2022-09-06T01:20:22;101899.38;;;27.36
67509;BMP280;54354;44.724;11.284;2022-09-06T01:22:57;101899.66;;;27.27
67509;BMP280;54354;44.724;11.284;2022-09-06T01:31:15;101897.25;;;27.06
67509;BMP280;54354;44.724;11.284;2022-09-06T01:37:02;101897.25;;;27.01
67509;BMP280;54354;44.724;11.284;2022-09-06T01:39:32;101892.09;;;26.92
67509;BMP280;54354;44.724;11.284;2022-09-06T01:42:11;101892.59;;;26.90
67509;BMP280;54354;44.724;11.284;2022-09-06T01:44:41;101900.00;;;26.95
67509;BMP280;54354;44.724;11.284;2022-09-06T01:50:30;101900.22;;;26.97
67509;BMP280;54354;44.724;11.284;2022-09-06T02:01:04;101898.03;;;26.90
67509;BMP280;54354;44.724;11.284;2022-09-06T02:04:35;101895.78;;;26.94
67509;BMP280;54354;44.724;11.284;2022-09-06T02:06:40;101897.78;;;26.88
67509;BMP280;54354;44.724;11.284;2022-09-06T02:09:10;101898.78;;;26.85
67509;BMP280;54354;44.724;11.284;2022-09-06T02:11:48;101892.88;;;26.81
67509;BMP280;54354;44.724;11.284;2022-09-06T02:14:19;101894.59;;;26.73
67509;BMP280;54354;44.724;11.284;2022-09-06T02:16:48;101893.84;;;26.67
67509;BMP280;54354;44.724;11.284;2022-09-06T02:19:27;101890.41;;;26.61
67509;BMP280;54354;44.724;11.284;2022-09-06T02:21:55;101895.34;;;26.62
67509;BMP280;54354;44.724;11.284;2022-09-06T02:24:27;101880.53;;;26.52
67509;BMP280;54354;44.724;11.284;2022-09-06T02:26:55;101884.72;;;26.53
67509;BMP280;54354;44.724;11.284;2022-09-06T02:29:20;101886.22;;;26.54
67509;BMP280;54354;44.724;11.284;2022-09-06T02:31:50;101883.00;;;26.50
67509;BMP280;54354;44.724;11.284;2022-09-06T02:34:18;101879.53;;;26.50
67509;BMP280;54354;44.724;11.284;2022-09-06T02:36:44;101879.06;;;26.46
67509;BMP280;54354;44.724;11.284;2022-09-06T02:39:11;101886.97;;;26.43
67509;BMP280;54354;44.724;11.284;2022-09-06T02:41:38;101884.72;;;26.42
67509;BMP280;54354;44.724;11.284;2022-09-06T02:44:05;101885.97;;;26.47
67509;BMP280;54354;44.724;11.284;2022-09-06T02:46:30;101883.50;;;26.49
67509;BMP280;54354;44.724;11.284;2022-09-06T02:48:56;101888.94;;;26.49
67509;BMP280;54354;44.724;11.284;2022-09-06T02:51:22;101889.16;;;26.51
67509;BMP280;54354;44.724;11.284;2022-09-06T02:53:47;101890.13;;;26.48
67509;BMP280;54354;44.724;11.284;2022-09-06T02:56:13;101892.63;;;26.46
67509;BMP280;54354;44.724;11.284;2022-09-06T02:58:38;101887.44;;;26.42
67509;BMP280;54354;44.724;11.284;2022-09-06T03:01:04;101880.25;;;26.39
67509;BMP280;54354;44.724;11.284;2022-09-06T03:03:30;101879.31;;;26.36
67509;BMP280;54354;44.724;11.284;2022-09-06T03:05:57;101882.50;;;26.35
67509;BMP280;54354;44.724;11.284;2022-09-06T03:08:24;101880.75;;;26.32
67509;BMP280;54354;44.724;11.284;2022-09-06T03:10:55;101880.50;;;26.30
67509;BMP280;54354;44.724;11.284;2022-09-06T03:13:21;101884.00;;;26.30
67509;BMP280;54354;44.724;11.284;2022-09-06T03:15:55;101890.38;;;26.22
67509;BMP280;54354;44.724;11.284;2022-09-06T03:18:25;101889.41;;;26.19
67509;BMP280;54354;44.724;11.284;2022-09-06T03:20:52;101897.78;;;26.21
67509;BMP280;54354;44.724;11.284;2022-09-06T03:23:20;101902.00;;;26.17
67509;BMP280;54354;44.724;11.284;2022-09-06T03:25:45;101900.25;;;26.14
67509;BMP280;54354;44.724;11.284;2022-09-06T03:28:11;101904.66;;;26.11
67509;BMP280;54354;44.724;11.284;2022-09-06T03:30:38;101892.34;;;26.10
67509;BMP280;54354;44.724;11.284;2022-09-06T03:33:03;101894.06;;;26.07
67509;BMP280;54354;44.724;11.284;2022-09-06T03:35:29;101884.91;;;26.05
67509;BMP280;54354;44.724;11.284;2022-09-06T03:37:55;101887.38;;;26.03
67509;BMP280;54354;44.724;11.284;2022-09-06T03:40:21;101891.09;;;26.00
67509;BMP280;54354;44.724;11.284;2022-09-06T03:42:46;101889.34;;;25.97
67509;BMP280;54354;44.724;11.284;2022-09-06T03:45:12;101883.69;;;25.95
67509;BMP280;54354;44.724;11.284;2022-09-06T03:47:37;101883.69;;;25.95
67509;BMP280;54354;44.724;11.284;2022-09-06T03:50:04;101879.22;;;25.92
67509;BMP280;54354;44.724;11.284;2022-09-06T03:52:30;101895.25;;;25.90
67509;BMP280;54354;44.724;11.284;2022-09-06T03:54:55;101892.28;;;25.88
67509;BMP280;54354;44.724;11.284;2022-09-06T03:57:21;101897.00;;;25.87
67509;BMP280;54354;44.724;11.284;2022-09-06T03:59:46;101897.69;;;25.88
67509;BMP280;54354;44.724;11.284;2022-09-06T04:02:12;101897.00;;;25.87
67509;BMP280;54354;44.724;11.284;2022-09-06T04:04:37;101893.75;;;25.89
67509;BMP280;54354;44.724;11.284;2022-09-06T04:07:03;101901.16;;;25.88
67509;BMP280;54354;44.724;11.284;2022-09-06T04:09:28;101895.97;;;25.85
67509;BMP280;54354;44.724;11.284;2022-09-06T04:11:54;101901.63;;;25.81
67509;BMP280;54354;44.724;11.284;2022-09-06T04:14:19;101895.22;;;25.78
67509;BMP280;54354;44.724;11.284;2022-09-06T04:16:45;101897.69;;;25.76
67509;BMP280;54354;44.724;11.284;2022-09-06T04:19:10;101894.72;;;25.74
67509;BMP280;54354;44.724;11.284;2022-09-06T04:21:36;101883.59;;;25.72
67509;BMP280;54354;44.724;11.284;2022-09-06T04:24:01;101892.22;;;25.71
67509;BMP280;54354;44.724;11.284;2022-09-06T04:26:27;101896.41;;;25.66
67509;BMP280;54354;44.724;11.284;2022-09-06T04:28:52;101895.41;;;25.64
67509;BMP280;54354;44.724;11.284;2022-09-06T04:31:18;101897.13;;;25.61
67509;BMP280;54354;44.724;11.284;2022-09-06T04:33:43;101902.81;;;25.63
67509;BMP280;54354;44.724;11.284;2022-09-06T04:36:10;101893.94;;;25.63
67509;BMP280;54354;44.724;11.284;2022-09-06T04:38:38;101898.38;;;25.60
67509;BMP280;54354;44.724;11.284;2022-09-06T04:41:04;101890.22;;;25.60
67509;BMP280;54354;44.724;11.284;2022-09-06T04:43:30;101893.66;;;25.61
67509;BMP280;54354;44.724;11.284;2022-09-06T04:46:05;101891.91;;;25.58
67509;BMP280;54354;44.724;11.284;2022-09-06T04:48:31;101907.00;;;25.64
67509;BMP280;54354;44.724;11.284;2022-09-06T04:50:56;101903.06;;;25.65
67509;BMP280;54354;44.724;11.284;2022-09-06T04:53:22;101907.72;;;25.65
67509;BMP280;54354;44.724;11.284;2022-09-06T04:55:47;101906.75;;;25.68
67509;BMP280;54354;44.724;11.284;2022-09-06T04:58:13;101911.72;;;25.69
67509;BMP280;54354;44.724;11.284;2022-09-06T05:00:38;101915.91;;;25.70
67509;BMP280;54354;44.724;11.284;2022-09-06T05:03:06;101914.69;;;25.71
67509;BMP280;54354;44.724;11.284;2022-09-06T05:05:31;101915.19;;;25.75
67509;BMP280;54354;44.724;11.284;2022-09-06T05:07:57;101920.13;;;25.83
67509;BMP280;54354;44.724;11.284;2022-09-06T05:10:23;101908.31;;;25.91
67509;BMP280;54354;44.724;11.284;2022-09-06T05:12:50;101915.75;;;25.96
67509;BMP280;54354;44.724;11.284;2022-09-06T05:15:16;101913.06;;;26.02
67509;BMP280;54354;44.724;11.284;2022-09-06T05:17:42;101925.63;;;26.05
67509;BMP280;54354;44.724;11.284;2022-09-06T05:20:08;101930.31;;;26.04
67509;BMP280;54354;44.724;11.284;2022-09-06T05:22:35;101930.81;;;26.08
67509;BMP280;54354;44.724;11.284;2022-09-06T05:25:00;101938.50;;;26.10
67509;BMP280;54354;44.724;11.284;2022-09-06T05:27:26;101936.78;;;26.13
67509;BMP280;54354;44.724;11.284;2022-09-06T05:29:51;101930.13;;;26.14
67509;BMP280;54354;44.724;11.284;2022-09-06T05:32:17;101933.53;;;26.08
67509;BMP280;54354;44.724;11.284;2022-09-06T05:34:42;101932.34;;;26.04
67509;BMP280;54354;44.724;11.284;2022-09-06T05:37:08;101929.81;;;26.00
67509;BMP280;54354;44.724;11.284;2022-09-06T05:39:33;101930.81;;;25.97
67509;BMP280;54354;44.724;11.284;2022-09-06T05:41:59;101932.53;;;25.95
67509;BMP280;54354;44.724;11.284;2022-09-06T05:44:25;101933.03;;;25.93
67509;BMP280;54354;44.724;11.284;2022-09-06T05:46:50;101937.47;;;25.96
67509;BMP280;54354;44.724;11.284;2022-09-06T05:49:16;101934.53;;;26.00
67509;BMP280;54354;44.724;11.284;2022-09-06T05:51:42;101930.31;;;26.04
67509;BMP280;54354;44.724;11.284;2022-09-06T05:54:11;101931.81;;;26.05
67509;BMP280;54354;44.724;11.284;2022-09-06T05:56:37;101939.47;;;26.18
67509;BMP280;54354;44.724;11.284;2022-09-06T05:59:02;101941.22;;;26.21
67509;BMP280;54354;44.724;11.284;2022-09-06T06:01:29;101926.44;;;26.17
67509;BMP280;54354;44.724;11.284;2022-09-06T06:03:59;101933.59;;;26.14
67509;BMP280;54354;44.724;11.284;2022-09-06T06:06:30;101923.97;;;26.19
67509;BMP280;54354;44.724;11.284;2022-09-06T06:08:56;101929.38;;;26.24
67509;BMP280;54354;44.724;11.284;2022-09-06T06:11:23;101930.38;;;26.27
67509;BMP280;54354;44.724;11.284;2022-09-06T06:13:49;101935.34;;;26.34
67509;BMP280;54354;44.724;11.284;2022-09-06T06:16:16;101937.09;;;26.37
67509;BMP280;54354;44.724;11.284;2022-09-06T06:18:42;101935.84;;;26.43
67509;BMP280;54354;44.724;11.284;2022-09-06T06:23:38;101930.66;;;26.57
67509;BMP280;54354;44.724;11.284;2022-09-06T06:26:04;101935.59;;;26.64
67509;BMP280;54354;44.724;11.284;2022-09-06T06:28:30;101943.25;;;26.71
67509;BMP280;54354;44.724;11.284;2022-09-06T06:30:56;101933.84;;;26.78
67509;BMP280;54354;44.724;11.284;2022-09-06T06:33:22;101937.09;;;26.87
67509;BMP280;54354;44.724;11.284;2022-09-06T06:35:58;101926.94;;;26.93
67509;BMP280;54354;44.724;11.284;2022-09-06T06:38:28;101935.75;;;27.22
67509;BMP280;54354;44.724;11.284;2022-09-06T06:40:53;101933.06;;;27.91
67509;BMP280;54354;44.724;11.284;2022-09-06T06:43:19;101934.59;;;28.16
67509;BMP280;54354;44.724;11.284;2022-09-06T06:45:48;101943.78;;;28.49
67509;BMP280;54354;44.724;11.284;2022-09-06T06:48:14;101952.03;;;28.92
67509;BMP280;54354;44.724;11.284;2022-09-06T06:50:40;101942.00;;;29.24
67509;BMP280;54354;44.724;11.284;2022-09-06T06:53:05;101941.59;;;29.58
67509;BMP280;54354;44.724;11.284;2022-09-06T06:55:31;101947.72;;;29.83
67509;BMP280;54354;44.724;11.284;2022-09-06T06:57:58;101936.63;;;29.94
67509;BMP280;54354;44.724;11.284;2022-09-06T07:00:24;101939.28;;;30.13
67509;BMP280;54354;44.724;11.284;2022-09-06T07:02:50;101947.78;;;30.41
67509;BMP280;54354;44.724;11.284;2022-09-06T07:05:17;101937.41;;;30.79
67509;BMP280;54354;44.724;11.284;2022-09-06T07:07:42;101941.47;;;31.12
67509;BMP280;54354;44.724;11.284;2022-09-06T07:10:08;101932.78;;;31.35
67509;BMP280;54354;44.724;11.284;2022-09-06T07:12:35;101937.91;;;31.51
67509;BMP280;54354;44.724;11.284;2022-09-06T07:15:00;101929.09;;;31.66
67509;BMP280;54354;44.724;11.284;2022-09-06T07:17:26;101930.91;;;31.84
67509;BMP280;54354;44.724;11.284;2022-09-06T07:19:52;101941.72;;;32.11
67509;BMP280;54354;44.724;11.284;2022-09-06T07:22:17;101941.19;;;32.41
67509;BMP280;54354;44.724;11.284;2022-09-06T07:24:43;101938.78;;;32.66
67509;BMP280;54354;44.724;11.284;2022-09-06T07:27:08;101937.22;;;32.85
67509;BMP280;54354;44.724;11.284;2022-09-06T07:29:34;101922.84;;;33.00
67509;BMP280;54354;44.724;11.284;2022-09-06T07:31:59;101935.31;;;33.16
67509;BMP280;54354;44.724;11.284;2022-09-06T07:34:25;101940.13;;;33.39
67509;BMP280;54354;44.724;11.284;2022-09-06T07:36:52;101932.28;;;33.58
67509;BMP280;54354;44.724;11.284;2022-09-06T07:39:18;101940.56;;;33.73
67509;BMP280;54354;44.724;11.284;2022-09-06T07:41:44;101943.09;;;33.86
67509;BMP280;54354;44.724;11.284;2022-09-06T07:44:09;101940.72;;;33.98
67509;BMP280;54354;44.724;11.284;2022-09-06T07:46:35;101937.03;;;34.03
67509;BMP280;54354;44.724;11.284;2022-09-06T07:49:03;101930.78;;;34.02
67509;BMP280;54354;44.724;11.284;2022-09-06T07:51:28;101934.44;;;34.05
67509;BMP280;54354;44.724;11.284;2022-09-06T07:53:54;101938.31;;;34.10
67509;BMP280;54354;44.724;11.284;2022-09-06T07:56:21;101931.69;;;34.13
67509;BMP280;54354;44.724;11.284;2022-09-06T07:58:48;101933.34;;;34.08
67509;BMP280;54354;44.724;11.284;2022-09-06T08:01:15;101925.88;;;33.93
67509;BMP280;54354;44.724;11.284;2022-09-06T08:03:41;101925.34;;;33.80
67509;BMP280;54354;44.724;11.284;2022-09-06T08:06:07;101928.81;;;33.73
67509;BMP280;54354;44.724;11.284;2022-09-06T08:08:33;101931.00;;;33.74
67509;BMP280;54354;44.724;11.284;2022-09-06T08:10:58;101931.72;;;33.67
67509;BMP280;54354;44.724;11.284;2022-09-06T08:13:24;101933.38;;;33.55
67509;BMP280;54354;44.724;11.284;2022-09-06T08:16:00;101929.16;;;33.39
67509;BMP280;54354;44.724;11.284;2022-09-06T08:18:25;101939.41;;;33.38
67509;BMP280;54354;44.724;11.284;2022-09-06T08:20:51;101945.97;;;33.35
67509;BMP280;54354;44.724;11.284;2022-09-06T08:23:16;101945.28;;;33.35
67509;BMP280;54354;44.724;11.284;2022-09-06T08:25:41;101938.47;;;33.36
67509;BMP280;54354;44.724;11.284;2022-09-06T08:28:07;101947.09;;;33.32
67509;BMP280;54354;44.724;11.284;2022-09-06T08:30:34;101948.50;;;33.25
67509;BMP280;54354;44.724;11.284;2022-09-06T08:33:00;101942.28;;;33.17
67509;BMP280;54354;44.724;11.284;2022-09-06T08:35:25;101942.06;;;33.08
67509;BMP280;54354;44.724;11.284;2022-09-06T08:37:51;101940.94;;;32.95
67509;BMP280;54354;44.724;11.284;2022-09-06T08:40:20;101938.09;;;32.73
67509;BMP280;54354;44.724;11.284;2022-09-06T08:42:46;101945.16;;;32.60
67509;BMP280;54354;44.724;11.284;2022-09-06T08:45:15;101943.59;;;32.44
67509;BMP280;54354;44.724;11.284;2022-09-06T08:47:44;101948.25;;;32.28
67509;BMP280;54354;44.724;11.284;2022-09-06T08:50:10;101943.19;;;32.12
67509;BMP280;54354;44.724;11.284;2022-09-06T08:52:58;101944.72;;;32.00
67509;BMP280;54354;44.724;11.284;2022-09-06T08:55:29;101949.53;;;32.07
67509;BMP280;54354;44.724;11.284;2022-09-06T09:00:48;101928.50;;;32.02
67509;BMP280;54354;44.724;11.284;2022-09-06T09:03:17;101929.00;;;32.00
67509;BMP280;54354;44.724;11.284;2022-09-06T09:05:47;101916.81;;;32.01
67509;BMP280;54354;44.724;11.284;2022-09-06T09:09:05;101924.19;;;32.14
67509;BMP280;54354;44.724;11.284;2022-09-06T09:11:31;101923.81;;;32.10
67509;BMP280;54354;44.724;11.284;2022-09-06T09:14:19;101927.56;;;31.99
67509;BMP280;54354;44.724;11.284;2022-09-06T09:16:49;101923.00;;;31.81
67509;BMP280;54354;44.724;11.284;2022-09-06T09:19:15;101922.59;;;32.18
67509;BMP280;54354;44.724;11.284;2022-09-06T09:21:40;101922.22;;;31.93
67509;BMP280;54354;44.724;11.284;2022-09-06T09:24:12;101912.31;;;31.70
67509;BMP280;54354;44.724;11.284;2022-09-06T09:26:50;101911.88;;;31.58
67509;BMP280;54354;44.724;11.284;2022-09-06T09:29:17;101913.53;;;31.61
67509;BMP280;54354;44.724;11.284;2022-09-06T09:31:46;101914.19;;;31.54
67509;BMP280;54354;44.724;11.284;2022-09-06T09:34:28;101909.44;;;31.54
67509;BMP280;54354;44.724;11.284;2022-09-06T09:37:21;101914.81;;;31.60
67509;BMP280;54354;44.724;11.284;2022-09-06T09:39:49;101909.31;;;31.60
67509;BMP280;54354;44.724;11.284;2022-09-06T09:42:23;101902.59;;;31.61
67509;BMP280;54354;44.724;11.284;2022-09-06T09:44:51;101901.16;;;31.68
67509;BMP280;54354;44.724;11.284;2022-09-06T09:47:25;101885.91;;;31.59
67509;BMP280;54354;44.724;11.284;2022-09-06T09:49:52;101891.09;;;31.63
67509;BMP280;54354;44.724;11.284;2022-09-06T09:52:23;101884.81;;;31.54
67509;BMP280;54354;44.724;11.284;2022-09-06T09:54:50;101886.06;;;31.53
67509;BMP280;54354;44.724;11.284;2022-09-06T09:57:21;101882.19;;;31.49
67509;BMP280;54354;44.724;11.284;2022-09-06T09:59:55;101878.31;;;31.44
67509;BMP280;54354;44.724;11.284;2022-09-06T10:02:28;101876.91;;;31.51
67509;BMP280;54354;44.724;11.284;2022-09-06T10:05:01;101865.44;;;31.52
67509;BMP280;54354;44.724;11.284;2022-09-06T10:07:27;101855.38;;;31.34
67509;BMP280;54354;44.724;11.284;2022-09-06T10:09:59;101853.50;;;31.08
67509;BMP280;54354;44.724;11.284;2022-09-06T10:12:31;101853.38;;;31.14
67509;BMP280;54354;44.724;11.284;2022-09-06T10:14:57;101865.63;;;31.34
67509;BMP280;54354;44.724;11.284;2022-09-06T10:19:51;101849.69;;;31.66
67509;BMP280;54354;44.724;11.284;2022-09-06T10:22:31;101853.06;;;31.80
67509;BMP280;54354;44.724;11.284;2022-09-06T10:27:27;101852.56;;;32.10
67509;BMP280;54354;44.724;11.284;2022-09-06T10:37:47;101837.38;;;32.45
67509;BMP280;54354;44.724;11.284;2022-09-06T10:40:32;101834.31;;;32.56
67509;BMP280;54354;44.724;11.284;2022-09-06T10:43:02;101833.44;;;32.61
67509;BMP280;54354;44.724;11.284;2022-09-06T10:45:41;101836.91;;;32.61
67509;BMP280;54354;44.724;11.284;2022-09-06T10:48:18;101830.34;;;32.72
67509;BMP280;54354;44.724;11.284;2022-09-06T10:50:56;101827.25;;;32.76
67509;BMP280;54354;44.724;11.284;2022-09-06T10:54:23;101827.84;;;32.82
67509;BMP280;54354;44.724;11.284;2022-09-06T10:56:30;101807.53;;;32.85
67509;BMP280;54354;44.724;11.284;2022-09-06T10:59:02;101804.41;;;32.88
67509;BMP280;54354;44.724;11.284;2022-09-06T11:01:52;101818.69;;;32.94
67509;BMP280;54354;44.724;11.284;2022-09-06T11:04:28;101798.75;;;32.94
67509;BMP280;54354;44.724;11.284;2022-09-06T11:06:58;101805.34;;;32.98
67509;BMP280;54354;44.724;11.284;2022-09-06T11:09:37;101810.66;;;33.04
67509;BMP280;54354;44.724;11.284;2022-09-06T11:14:55;101802.66;;;33.14
67509;BMP280;54354;44.724;11.284;2022-09-06T11:17:39;101802.44;;;33.12
67509;BMP280;54354;44.724;11.284;2022-09-06T11:20:21;101793.97;;;32.87
67509;BMP280;54354;44.724;11.284;2022-09-06T11:25:28;101790.81;;;32.16
67509;BMP280;54354;44.724;11.284;2022-09-06T11:28:00;101787.41;;;31.95
67509;BMP280;54354;44.724;11.284;2022-09-06T11:30:28;101778.34;;;31.79
67509;BMP280;54354;44.724;11.284;2022-09-06T11:35:39;101779.06;;;31.51
67509;BMP280;54354;44.724;11.284;2022-09-06T11:38:19;101779.00;;;31.44
67509;BMP280;54354;44.724;11.284;2022-09-06T11:40:48;101773.88;;;31.40
67509;BMP280;54354;44.724;11.284;2022-09-06T11:46:05;101773.06;;;31.11
67509;BMP280;54354;44.724;11.284;2022-09-06T11:48:47;101759.47;;;30.85
67509;BMP280;54354;44.724;11.284;2022-09-06T11:51:36;101757.84;;;30.69
67509;BMP280;54354;44.724;11.284;2022-09-06T12:04:21;101743.22;;;30.79
67509;BMP280;54354;44.724;11.284;2022-09-06T12:07:08;101735.75;;;30.80
67509;BMP280;54354;44.724;11.284;2022-09-06T12:25:58;101726.34;;;30.88
67509;BMP280;54354;44.724;11.284;2022-09-06T12:33:47;101715.94;;;31.08
67509;BMP280;54354;44.724;11.284;2022-09-06T12:36:23;101706.38;;;31.01
67509;BMP280;54354;44.724;11.284;2022-09-06T12:39:03;101708.75;;;30.97
67509;BMP280;54354;44.724;11.284;2022-09-06T12:41:38;101701.53;;;31.07
67509;BMP280;54354;44.724;11.284;2022-09-06T12:44:05;101705.19;;;31.10
67509;BMP280;54354;44.724;11.284;2022-09-06T12:46:32;101703.25;;;31.18
67509;BMP280;54354;44.724;11.284;2022-09-06T12:49:10;101701.28;;;31.26
67509;BMP280;54354;44.724;11.284;2022-09-06T12:51:37;101695.78;;;31.18
67509;BMP280;54354;44.724;11.284;2022-09-06T12:54:17;101693.44;;;31.02
67509;BMP280;54354;44.724;11.284;2022-09-06T12:56:43;101693.72;;;31.11
67509;BMP280;54354;44.724;11.284;2022-09-06T12:59:27;101691.09;;;31.26
67509;BMP280;54354;44.724;11.284;2022-09-06T13:01:55;101684.88;;;31.26
67509;BMP280;54354;44.724;11.284;2022-09-06T13:04:44;101671.63;;;31.09
67509;BMP280;54354;44.724;11.284;2022-09-06T13:07:13;101666.53;;;30.92
67509;BMP280;54354;44.724;11.284;2022-09-06T13:09:42;101667.53;;;30.82
67509;BMP280;54354;44.724;11.284;2022-09-06T13:12:27;101662.47;;;30.65
67509;BMP280;54354;44.724;11.284;2022-09-06T13:14:56;101660.06;;;30.61
67509;BMP280;54354;44.724;11.284;2022-09-06T13:17:28;101646.72;;;30.58
67509;BMP280;54354;44.724;11.284;2022-09-06T13:19:54;101645.63;;;30.74
67509;BMP280;54354;44.724;11.284;2022-09-06T13:22:38;101639.31;;;30.87
67509;BMP280;54354;44.724;11.284;2022-09-06T13:25:04;101639.31;;;30.87
67509;BMP280;54354;44.724;11.284;2022-09-06T13:27:33;101637.44;;;30.82
67509;BMP280;54354;44.724;11.284;2022-09-06T13:30:08;101637.00;;;30.70
67509;BMP280;54354;44.724;11.284;2022-09-06T13:32:35;101630.00;;;30.82
67509;BMP280;54354;44.724;11.284;2022-09-06T13:35:02;101621.50;;;30.93
67509;BMP280;54354;44.724;11.284;2022-09-06T13:37:30;101624.19;;;31.07
67509;BMP280;54354;44.724;11.284;2022-09-06T13:39:58;101619.88;;;31.19
67509;BMP280;54354;44.724;11.284;2022-09-06T13:42:32;101623.09;;;31.10
67509;BMP280;54354;44.724;11.284;2022-09-06T13:45:20;101608.69;;;31.09
67509;BMP280;54354;44.724;11.284;2022-09-06T13:47:48;101605.63;;;31.13
67509;BMP280;54354;44.724;11.284;2022-09-06T13:50:13;101604.09;;;31.04
67509;BMP280;54354;44.724;11.284;2022-09-06T13:52:40;101605.53;;;30.98
67509;BMP280;54354;44.724;11.284;2022-09-06T13:55:06;101604.09;;;31.04
67509;BMP280;54354;44.724;11.284;2022-09-06T13:57:31;101606.63;;;31.02
67509;BMP280;54354;44.724;11.284;2022-09-06T13:59:57;101594.75;;;31.00
67509;BMP280;54354;44.724;11.284;2022-09-06T14:02:22;101592.81;;;31.08
67509;BMP280;54354;44.724;11.284;2022-09-06T14:04:49;101590.81;;;31.08
67509;BMP280;54354;44.724;11.284;2022-09-06T14:07:14;101589.34;;;31.07
67509;BMP280;54354;44.724;11.284;2022-09-06T14:09:40;101586.13;;;31.16
67509;BMP280;54354;44.724;11.284;2022-09-06T14:12:06;101581.00;;;31.13
67509;BMP280;54354;44.724;11.284;2022-09-06T14:14:32;101577.91;;;31.16
67509;BMP280;54354;44.724;11.284;2022-09-06T14:16:58;101580.84;;;31.18
67509;BMP280;54354;44.724;11.284;2022-09-06T14:19:24;101579.03;;;31.21
67509;BMP280;54354;44.724;11.284;2022-09-06T14:21:49;101575.97;;;31.24
67509;BMP280;54354;44.724;11.284;2022-09-06T14:24:15;101586.19;;;31.24
67509;BMP280;54354;44.724;11.284;2022-09-06T14:26:41;101572.63;;;31.18
67509;BMP280;54354;44.724;11.284;2022-09-06T14:29:06;101575.66;;;31.07
67509;BMP280;54354;44.724;11.284;2022-09-06T14:31:32;101568.88;;;31.01
67509;BMP280;54354;44.724;11.284;2022-09-06T14:33:59;101560.59;;;30.93
67509;BMP280;54354;44.724;11.284;2022-09-06T14:36:27;101560.94;;;30.89
67509;BMP280;54354;44.724;11.284;2022-09-06T14:38:55;101564.25;;;30.95
67509;BMP280;54354;44.724;11.284;2022-09-06T14:41:21;101561.03;;;30.97
67509;BMP280;54354;44.724;11.284;2022-09-06T14:43:52;101563.66;;;30.89
67509;BMP280;54354;44.724;11.284;2022-09-06T14:46:20;101554.94;;;30.91
67509;BMP280;54354;44.724;11.284;2022-09-06T14:48:46;101554.06;;;30.96
67509;BMP280;54354;44.724;11.284;2022-09-06T14:51:17;101546.78;;;30.99
67509;BMP280;54354;44.724;11.284;2022-09-06T14:53:47;101554.09;;;31.04
67509;BMP280;54354;44.724;11.284;2022-09-06T14:56:13;101562.69;;;31.00
67509;BMP280;54354;44.724;11.284;2022-09-06T14:58:39;101551.88;;;30.94
67509;BMP280;54354;44.724;11.284;2022-09-06T15:03:38;101552.03;;;30.89
67509;BMP280;54354;44.724;11.284;2022-09-06T15:06:05;101556.19;;;30.90
67509;BMP280;54354;44.724;11.284;2022-09-06T15:08:31;101554.19;;;30.90
67509;BMP280;54354;44.724;11.284;2022-09-06T15:10:57;101538.38;;;30.97
67509;BMP280;54354;44.724;11.284;2022-09-06T15:13:23;101531.69;;;31.05
67509;BMP280;54354;44.724;11.284;2022-09-06T15:15:54;101538.31;;;31.17
67509;BMP280;54354;44.724;11.284;2022-09-06T15:18:20;101531.25;;;31.22
67509;BMP280;54354;44.724;11.284;2022-09-06T15:20:46;101530.66;;;31.16
67509;BMP280;54354;44.724;11.284;2022-09-06T15:23:12;101525.91;;;31.16
67509;BMP280;54354;44.724;11.284;2022-09-06T15:25:44;101517.00;;;31.23
67509;BMP280;54354;44.724;11.284;2022-09-06T15:28:10;101523.16;;;31.45
67509;BMP280;54354;44.724;11.284;2022-09-06T15:30:38;101522.09;;;31.55
67509;BMP280;54354;44.724;11.284;2022-09-06T15:33:03;101516.06;;;31.57